sensor_id;sensor_type;location;lat;lon;timestamp;P1;durP1;ratioP1;P2;durP2;ratioP2
42802;SDS011;28447;48.682;9.022;2022-08-23T17:06:14;4.20;;;3.80;;
42802;SDS011;28447;48.682;9.022;2022-08-23T17:08:40;3.97;;;3.55;;
42802;SDS011;28447;48.682;9.022;2022-08-23T17:11:06;4.13;;;3.70;;
42802;SDS011;28447;48.682;9.022;2022-08-23T17:13:35;4.43;;;4.03;;
42802;SDS011;28447;48.682;9.022;2022-08-23T17:16:02;7.38;;;4.25;;
42802;SDS011;28447;48.682;9.022;2022-08-23T17:18:28;3.88;;;3.42;;
42802;SDS011;28447;48.682;9.022;2022-08-23T17:20:55;5.05;;;3.60;;
42802;SDS011;28447;48.682;9.022;2022-08-23T17:23:21;3.90;;;3.60;;
42802;SDS011;28447;48.682;9.022;2022-08-23T17:25:47;5.63;;;4.05;;
42802;SDS011;28447;48.682;9.022;2022-08-23T17:28:14;4.38;;;3.70;;
42802;SDS011;28447;48.682;9.022;2022-08-23T17:30:41;4.70;;;4.25;;
42802;SDS011;28447;48.682;9.022;2022-08-23T17:33:07;8.10;;;4.00;;
42802;SDS011;28447;48.682;9.022;2022-08-23T17:35:34;4.20;;;3.80;;
42802;SDS011;28447;48.682;9.022;2022-08-23T17:38:01;8.25;;;4.68;;
42802;SDS011;28447;48.682;9.022;2022-08-23T17:40:29;3.97;;;3.63;;
42802;SDS011;28447;48.682;9.022;2022-08-23T17:42:56;6.05;;;4.15;;
42802;SDS011;28447;48.682;9.022;2022-08-23T17:45:24;7.23;;;4.63;;
42802;SDS011;28447;48.682;9.022;2022-08-23T17:47:50;8.97;;;4.07;;
42802;SDS011;28447;48.682;9.022;2022-08-23T17:50:17;7.30;;;3.90;;
42802;SDS011;28447;48.682;9.022;2022-08-23T17:52:43;5.33;;;4.20;;
42802;SDS011;28447;48.682;9.022;2022-08-23T17:55:10;13.03;;;4.57;;
42802;SDS011;28447;48.682;9.022;2022-08-23T17:57:36;4.40;;;4.00;;
42802;SDS011;28447;48.682;9.022;2022-08-23T18:00:03;11.00;;;5.20;;
42802;SDS011;28447;48.682;9.022;2022-08-23T18:02:30;6.20;;;4.73;;
42802;SDS011;28447;48.682;9.022;2022-08-23T18:04:56;12.17;;;4.80;;
42802;SDS011;28447;48.682;9.022;2022-08-23T18:07:22;8.60;;;4.10;;
42802;SDS011;28447;48.682;9.022;2022-08-23T18:09:49;10.10;;;5.13;;
42802;SDS011;28447;48.682;9.022;2022-08-23T18:12:15;8.97;;;4.37;;
42802;SDS011;28447;48.682;9.022;2022-08-23T18:14:41;8.63;;;5.00;;
42802;SDS011;28447;48.682;9.022;2022-08-23T18:17:08;4.80;;;4.33;;
42802;SDS011;28447;48.682;9.022;2022-08-23T18:19:34;4.80;;;4.40;;
42802;SDS011;28447;48.682;9.022;2022-08-23T18:22:00;4.97;;;4.30;;
42802;SDS011;28447;48.682;9.022;2022-08-23T18:24:26;8.63;;;4.93;;
42802;SDS011;28447;48.682;9.022;2022-08-23T18:26:52;7.73;;;4.93;;
42802;SDS011;28447;48.682;9.022;2022-08-23T18:29:37;9.10;;;5.10;;
42802;SDS011;28447;48.682;9.022;2022-08-23T18:32:04;4.93;;;4.43;;
42802;SDS011;28447;48.682;9.022;2022-08-23T18:34:31;10.60;;;4.77;;
42802;SDS011;28447;48.682;9.022;2022-08-23T18:36:57;5.63;;;4.63;;
42802;SDS011;28447;48.682;9.022;2022-08-23T18:39:24;7.37;;;5.00;;
42802;SDS011;28447;48.682;9.022;2022-08-23T18:41:50;8.80;;;5.10;;
42802;SDS011;28447;48.682;9.022;2022-08-23T18:44:16;6.63;;;5.03;;
42802;SDS011;28447;48.682;9.022;2022-08-23T18:46:43;6.40;;;5.17;;
42802;SDS011;28447;48.682;9.022;2022-08-23T18:49:12;5.13;;;4.63;;
42802;SDS011;28447;48.682;9.022;2022-08-23T18:51:38;5.77;;;4.47;;
42802;SDS011;28447;48.682;9.022;2022-08-23T18:54:05;7.20;;;5.23;;
42802;SDS011;28447;48.682;9.022;2022-08-23T18:56:31;8.87;;;5.80;;
42802;SDS011;28447;48.682;9.022;2022-08-23T18:58:59;6.03;;;4.90;;
42802;SDS011;28447;48.682;9.022;2022-08-23T19:01:29;8.00;;;5.20;;
42802;SDS011;28447;48.682;9.022;2022-08-23T19:03:56;5.20;;;4.70;;
42802;SDS011;28447;48.682;9.022;2022-08-23T19:06:23;7.80;;;5.23;;
42802;SDS011;28447;48.682;9.022;2022-08-23T19:08:49;5.53;;;4.87;;
42802;SDS011;28447;48.682;9.022;2022-08-23T19:11:16;5.93;;;5.23;;
42802;SDS011;28447;48.682;9.022;2022-08-23T19:13:44;6.40;;;5.13;;
42802;SDS011;28447;48.682;9.022;2022-08-23T19:16:10;5.50;;;4.80;;
42802;SDS011;28447;48.682;9.022;2022-08-23T19:18:38;7.37;;;4.63;;
42802;SDS011;28447;48.682;9.022;2022-08-23T19:21:04;6.50;;;4.87;;
42802;SDS011;28447;48.682;9.022;2022-08-23T19:23:30;6.03;;;5.00;;
42802;SDS011;28447;48.682;9.022;2022-08-23T19:25:57;7.20;;;5.00;;
42802;SDS011;28447;48.682;9.022;2022-08-23T19:28:23;5.43;;;4.90;;
42802;SDS011;28447;48.682;9.022;2022-08-23T19:30:49;10.53;;;5.43;;
42802;SDS011;28447;48.682;9.022;2022-08-23T19:33:16;6.30;;;4.83;;
42802;SDS011;28447;48.682;9.022;2022-08-23T19:35:42;6.17;;;4.97;;
42802;SDS011;28447;48.682;9.022;2022-08-23T19:38:09;7.43;;;5.60;;
42802;SDS011;28447;48.682;9.022;2022-08-23T19:40:38;8.37;;;5.67;;
42802;SDS011;28447;48.682;9.022;2022-08-23T19:43:04;6.37;;;5.10;;
42802;SDS011;28447;48.682;9.022;2022-08-23T19:45:30;6.07;;;5.47;;
42802;SDS011;28447;48.682;9.022;2022-08-23T19:47:57;6.00;;;5.40;;
42802;SDS011;28447;48.682;9.022;2022-08-23T19:50:24;6.63;;;5.67;;
42802;SDS011;28447;48.682;9.022;2022-08-23T19:52:50;6.57;;;5.10;;
42802;SDS011;28447;48.682;9.022;2022-08-23T19:55:17;6.70;;;5.83;;
42802;SDS011;28447;48.682;9.022;2022-08-23T19:57:43;8.53;;;5.80;;
42802;SDS011;28447;48.682;9.022;2022-08-23T20:00:10;6.00;;;5.40;;
42802;SDS011;28447;48.682;9.022;2022-08-23T20:02:38;6.33;;;5.53;;
42802;SDS011;28447;48.682;9.022;2022-08-23T20:05:05;9.17;;;5.00;;
42802;SDS011;28447;48.682;9.022;2022-08-23T20:07:32;8.03;;;5.50;;
42802;SDS011;28447;48.682;9.022;2022-08-23T20:09:59;6.40;;;5.77;;
42802;SDS011;28447;48.682;9.022;2022-08-23T20:12:25;5.97;;;4.90;;
42802;SDS011;28447;48.682;9.022;2022-08-23T20:14:53;5.40;;;4.90;;
42802;SDS011;28447;48.682;9.022;2022-08-23T20:17:19;12.57;;;5.20;;
42802;SDS011;28447;48.682;9.022;2022-08-23T20:19:46;5.37;;;4.90;;
42802;SDS011;28447;48.682;9.022;2022-08-23T20:22:12;8.97;;;5.63;;
42802;SDS011;28447;48.682;9.022;2022-08-23T20:24:59;7.30;;;5.43;;
42802;SDS011;28447;48.682;9.022;2022-08-23T20:27:25;10.77;;;5.27;;
42802;SDS011;28447;48.682;9.022;2022-08-23T20:29:51;7.13;;;5.60;;
42802;SDS011;28447;48.682;9.022;2022-08-23T20:32:18;16.10;;;6.13;;
42802;SDS011;28447;48.682;9.022;2022-08-23T20:34:44;6.30;;;5.70;;
42802;SDS011;28447;48.682;9.022;2022-08-23T20:37:10;10.77;;;6.17;;
42802;SDS011;28447;48.682;9.022;2022-08-23T20:39:36;8.93;;;5.43;;
42802;SDS011;28447;48.682;9.022;2022-08-23T20:42:02;6.83;;;6.00;;
42802;SDS011;28447;48.682;9.022;2022-08-23T20:44:28;7.90;;;5.50;;
42802;SDS011;28447;48.682;9.022;2022-08-23T20:46:55;11.70;;;5.90;;
42802;SDS011;28447;48.682;9.022;2022-08-23T20:49:21;10.30;;;6.47;;
42802;SDS011;28447;48.682;9.022;2022-08-23T20:51:48;7.60;;;6.20;;
42802;SDS011;28447;48.682;9.022;2022-08-23T20:54:14;9.07;;;6.37;;
42802;SDS011;28447;48.682;9.022;2022-08-23T20:56:40;10.40;;;6.40;;
42802;SDS011;28447;48.682;9.022;2022-08-23T20:59:07;6.77;;;5.93;;
42802;SDS011;28447;48.682;9.022;2022-08-23T21:01:33;9.90;;;6.17;;
42802;SDS011;28447;48.682;9.022;2022-08-23T21:03:59;9.10;;;6.13;;
42802;SDS011;28447;48.682;9.022;2022-08-23T21:06:27;6.43;;;5.80;;
42802;SDS011;28447;48.682;9.022;2022-08-23T21:08:55;7.63;;;6.23;;
42802;SDS011;28447;48.682;9.022;2022-08-23T21:11:22;11.40;;;6.63;;
42802;SDS011;28447;48.682;9.022;2022-08-23T21:13:50;7.37;;;6.37;;
42802;SDS011;28447;48.682;9.022;2022-08-23T21:16:16;6.73;;;6.03;;
42802;SDS011;28447;48.682;9.022;2022-08-23T21:18:43;8.40;;;6.43;;
42802;SDS011;28447;48.682;9.022;2022-08-23T21:21:09;10.40;;;6.80;;
42802;SDS011;28447;48.682;9.022;2022-08-23T21:23:36;6.00;;;5.40;;
42802;SDS011;28447;48.682;9.022;2022-08-23T21:26:02;8.73;;;5.60;;
42802;SDS011;28447;48.682;9.022;2022-08-23T21:28:29;6.77;;;6.03;;
42802;SDS011;28447;48.682;9.022;2022-08-23T21:31:02;6.70;;;6.00;;
42802;SDS011;28447;48.682;9.022;2022-08-23T21:33:28;6.53;;;5.50;;
42802;SDS011;28447;48.682;9.022;2022-08-23T21:35:55;8.33;;;6.73;;
42802;SDS011;28447;48.682;9.022;2022-08-23T21:38:21;7.13;;;6.07;;
42802;SDS011;28447;48.682;9.022;2022-08-23T21:40:53;7.30;;;6.60;;
42802;SDS011;28447;48.682;9.022;2022-08-23T21:43:19;6.67;;;5.87;;
42802;SDS011;28447;48.682;9.022;2022-08-23T21:45:45;8.67;;;6.07;;
42802;SDS011;28447;48.682;9.022;2022-08-23T21:48:11;7.83;;;5.90;;
42802;SDS011;28447;48.682;9.022;2022-08-23T21:50:37;10.40;;;6.33;;
42802;SDS011;28447;48.682;9.022;2022-08-23T21:53:03;7.80;;;6.67;;
42802;SDS011;28447;48.682;9.022;2022-08-23T21:55:29;8.53;;;6.43;;
42802;SDS011;28447;48.682;9.022;2022-08-23T21:57:55;7.00;;;6.30;;
42802;SDS011;28447;48.682;9.022;2022-08-23T22:00:21;8.20;;;6.47;;
42802;SDS011;28447;48.682;9.022;2022-08-23T22:02:47;6.97;;;6.27;;
42802;SDS011;28447;48.682;9.022;2022-08-23T22:05:13;8.77;;;7.07;;
42802;SDS011;28447;48.682;9.022;2022-08-23T22:07:39;7.70;;;6.60;;
42802;SDS011;28447;48.682;9.022;2022-08-23T22:10:06;8.87;;;6.97;;
42802;SDS011;28447;48.682;9.022;2022-08-23T22:12:35;6.83;;;6.10;;
42802;SDS011;28447;48.682;9.022;2022-08-23T22:15:01;6.93;;;6.23;;
42802;SDS011;28447;48.682;9.022;2022-08-23T22:17:27;8.10;;;6.47;;
42802;SDS011;28447;48.682;9.022;2022-08-23T22:19:53;6.63;;;5.93;;
42802;SDS011;28447;48.682;9.022;2022-08-23T22:22:20;8.83;;;6.10;;
42802;SDS011;28447;48.682;9.022;2022-08-23T22:24:46;8.60;;;6.30;;
42802;SDS011;28447;48.682;9.022;2022-08-23T22:27:12;8.60;;;6.47;;
42802;SDS011;28447;48.682;9.022;2022-08-23T22:29:39;7.43;;;6.70;;
42802;SDS011;28447;48.682;9.022;2022-08-23T22:32:05;7.67;;;6.70;;
42802;SDS011;28447;48.682;9.022;2022-08-23T22:34:31;7.53;;;6.83;;
42802;SDS011;28447;48.682;9.022;2022-08-23T22:36:57;8.50;;;6.90;;
42802;SDS011;28447;48.682;9.022;2022-08-23T22:39:24;11.40;;;7.63;;
42802;SDS011;28447;48.682;9.022;2022-08-23T22:41:50;7.80;;;6.47;;
42802;SDS011;28447;48.682;9.022;2022-08-23T22:44:18;6.40;;;5.80;;
42802;SDS011;28447;48.682;9.022;2022-08-23T22:46:44;9.07;;;6.57;;
42802;SDS011;28447;48.682;9.022;2022-08-23T22:49:10;8.53;;;6.70;;
42802;SDS011;28447;48.682;9.022;2022-08-23T22:51:36;7.93;;;6.43;;
42802;SDS011;28447;48.682;9.022;2022-08-23T22:54:03;8.33;;;6.83;;
42802;SDS011;28447;48.682;9.022;2022-08-23T22:56:41;6.60;;;5.83;;
42802;SDS011;28447;48.682;9.022;2022-08-23T22:59:07;11.77;;;6.60;;
42802;SDS011;28447;48.682;9.022;2022-08-23T23:01:35;8.53;;;6.97;;
42802;SDS011;28447;48.682;9.022;2022-08-23T23:04:01;8.90;;;6.90;;
42802;SDS011;28447;48.682;9.022;2022-08-23T23:06:28;7.00;;;6.30;;
42802;SDS011;28447;48.682;9.022;2022-08-23T23:08:54;7.57;;;6.80;;
42802;SDS011;28447;48.682;9.022;2022-08-23T23:11:21;7.73;;;6.67;;
42802;SDS011;28447;48.682;9.022;2022-08-23T23:13:47;8.13;;;6.80;;
42802;SDS011;28447;48.682;9.022;2022-08-23T23:31:32;11.90;;;7.07;;
42802;SDS011;28447;48.682;9.022;2022-08-23T23:33:58;8.17;;;7.37;;
42802;SDS011;28447;48.682;9.022;2022-08-23T23:36:24;11.83;;;7.43;;
42802;SDS011;28447;48.682;9.022;2022-08-23T23:38:51;9.50;;;7.27;;
42802;SDS011;28447;48.682;9.022;2022-08-23T23:41:17;9.40;;;6.90;;
42802;SDS011;28447;48.682;9.022;2022-08-23T23:43:44;7.23;;;6.53;;
42802;SDS011;28447;48.682;9.022;2022-08-23T23:46:11;8.27;;;7.00;;
42802;SDS011;28447;48.682;9.022;2022-08-23T23:48:38;7.93;;;6.80;;
42802;SDS011;28447;48.682;9.022;2022-08-23T23:51:08;12.23;;;7.87;;
42802;SDS011;28447;48.682;9.022;2022-08-23T23:53:35;8.00;;;7.20;;
42802;SDS011;28447;48.682;9.022;2022-08-23T23:56:02;8.50;;;7.10;;
42802;SDS011;28447;48.682;9.022;2022-08-23T23:58:28;9.17;;;6.70;;
